Time;durP1;ratioP1;P1;durP2;ratioP2;P2;SDS_P1;SDS_P2;PMS_P1;PMS_P2;Temp;Humidity;BMP_temperature;BMP_pressure;BME280_temperature;BME280_humidity;BME280_pressure;Samples;Min_cycle;Max_cycle;Signal;HPM_P1;HPM_P2
2023/07/16 00:00:30;;;;;;;12.00;6.80;;;;;;;21.57;54.90;100341.95;108244;1253;72963;-69
2023/07/16 00:02:57;;;;;;;17.10;8.00;;;;;;;21.70;54.51;100342.89;108162;1252;61852;-68
2023/07/16 00:05:24;;;;;;;11.20;6.60;;;;;;;21.68;54.42;100343.98;108284;1254;60158;-68
2023/07/16 00:07:52;;;;;;;10.70;7.50;;;;;;;21.71;54.24;100347.33;108266;1254;73900;-69
2023/07/16 00:10:19;;;;;;;14.70;8.00;;;;;;;21.66;54.42;100349.86;108210;1253;70335;-70
2023/07/16 00:12:48;;;;;;;14.10;7.10;;;;;;;21.61;54.34;100352.77;108234;1253;72028;-68
2023/07/16 00:15:15;;;;;;;21.00;8.40;;;;;;;21.56;54.39;100351.34;108176;1253;61652;-68
2023/07/16 00:17:42;;;;;;;11.00;6.80;;;;;;;21.55;54.39;100347.14;108143;1252;60037;-68
2023/07/16 00:20:09;;;;;;;12.50;8.10;;;;;;;21.48;54.63;100342.64;108188;1254;73894;-69
2023/07/16 00:22:38;;;;;;;20.40;8.50;;;;;;;21.42;54.64;100344.55;108179;1254;69135;-69
2023/07/16 00:25:07;;;;;;;13.70;8.70;;;;;;;21.43;54.59;100348.98;109203;1252;72702;-70
2023/07/16 00:27:34;;;;;;;13.10;8.30;;;;;;;21.13;55.36;100343.98;108296;1253;61170;-68
2023/07/16 00:30:00;;;;;;;14.30;8.00;;;;;;;21.17;55.20;100345.60;107919;1253;60490;-69
2023/07/16 00:32:27;;;;;;;11.40;8.20;;;;;;;21.23;55.00;100345.02;107961;1253;73900;-69
2023/07/16 00:34:54;;;;;;;18.20;7.90;;;;;;;21.21;54.96;100347.15;108159;1253;70048;-69
2023/07/16 00:37:21;;;;;;;11.90;7.10;;;;;;;21.21;54.89;100345.83;108159;1254;72493;-68
2023/07/16 00:39:48;;;;;;;17.80;8.50;;;;;;;21.16;54.92;100343.39;108040;1253;58290;-69
2023/07/16 00:42:14;;;;;;;12.50;7.90;;;;;;;21.01;55.31;100342.73;108264;1253;60445;-68
2023/07/16 00:44:41;;;;;;;10.80;7.20;;;;;;;21.01;55.34;100344.52;108022;1255;60500;-67
2023/07/16 00:47:08;;;;;;;11.90;8.10;;;;;;;20.86;55.78;100344.45;108027;1253;70656;-66
2023/07/16 00:49:36;;;;;;;13.30;7.70;;;;;;;20.76;56.21;100341.43;108342;1251;72619;-66
2023/07/16 00:52:05;;;;;;;17.40;8.60;;;;;;;20.83;56.04;100342.18;108334;1251;61710;-69
2023/07/16 00:54:31;;;;;;;14.60;8.80;;;;;;;20.82;55.88;100341.71;108340;1251;60448;-68
2023/07/16 00:56:58;;;;;;;14.20;8.40;;;;;;;20.79;56.02;100343.95;108416;1251;60288;-68
2023/07/16 00:59:25;;;;;;;13.90;8.50;;;;;;;20.67;56.31;100343.16;108158;1253;70745;-68
2023/07/16 01:01:51;;;;;;;11.60;7.00;;;;;;;20.67;56.12;100344.27;108322;1251;73083;-68
2023/07/16 01:04:18;;;;;;;18.30;7.40;;;;;;;20.69;56.00;100340.73;108195;1251;61688;-68
2023/07/16 01:06:49;;;;;;;12.60;8.40;;;;;;;20.65;56.17;100341.05;107999;1251;60550;-68
2023/07/16 01:09:20;;;;;;;;;;;;;;;20.69;56.07;100342.48;109014;1251;73687;-68
2023/07/16 01:11:47;;;;;;;19.40;7.90;;;;;;;20.64;56.39;100341.99;109254;1251;70188;-68
2023/07/16 01:14:15;;;;;;;15.50;8.70;;;;;;;20.55;56.75;100341.63;108149;1251;72519;-68
2023/07/16 01:16:43;;;;;;;12.70;7.00;;;;;;;20.57;56.48;100342.34;108091;1251;61691;-67
2023/07/16 01:19:10;;;;;;;13.10;8.30;;;;;;;20.44;56.72;100341.50;108210;1251;60297;-68
2023/07/16 01:22:01;;;;;;;14.70;8.50;;;;;;;20.45;56.88;100341.80;108060;1251;72961;-67
2023/07/16 01:25:11;;;;;;;10.90;7.90;;;;;;;20.37;56.91;100341.01;108214;1251;69239;-69
2023/07/16 01:27:46;;;;;;;12.00;8.50;;;;;;;20.29;57.05;100345.42;107731;1259;72460;-67
2023/07/16 01:30:15;;;;;;;15.90;8.60;;;;;;;20.36;56.96;100349.10;108168;1253;60528;-69
2023/07/16 01:32:42;;;;;;;14.40;6.40;;;;;;;20.37;56.93;100344.00;108141;1253;60394;-67
2023/07/16 01:35:09;;;;;;;15.80;8.60;;;;;;;20.44;56.73;100343.98;108068;1251;72747;-69
2023/07/16 01:37:36;;;;;;;16.00;8.10;;;;;;;20.41;56.54;100345.30;108139;1251;68934;-69
2023/07/16 01:40:04;;;;;;;17.10;8.50;;;;;;;20.27;56.99;100347.26;108072;1251;73106;-67
2023/07/16 01:42:31;;;;;;;14.20;8.80;;;;;;;20.16;57.17;100349.66;108238;1251;60590;-68
2023/07/16 01:44:57;;;;;;;12.90;8.40;;;;;;;20.06;57.38;100351.30;107953;1251;60428;-68
2023/07/16 01:47:51;;;;;;;12.90;8.30;;;;;;;20.13;57.19;100356.48;108102;1251;74442;-68
2023/07/16 01:50:18;;;;;;;18.10;8.90;;;;;;;20.09;57.40;100353.55;107992;1253;70306;-67
2023/07/16 01:52:45;;;;;;;15.10;8.70;;;;;;;20.17;57.34;100351.15;108073;1252;73198;-67
2023/07/16 01:55:14;;;;;;;16.30;9.00;;;;;;;20.22;57.18;100352.56;108198;1252;61877;-67
2023/07/16 01:57:43;;;;;;;10.90;7.30;;;;;;;20.12;57.38;100351.88;107935;1253;60448;-68
2023/07/16 02:00:10;;;;;;;11.90;8.20;;;;;;;20.11;57.32;100351.63;108073;1258;60560;-67
2023/07/16 02:02:46;;;;;;;13.20;8.90;;;;;;;20.07;57.19;100352.25;108079;1252;70137;-67
2023/07/16 02:05:14;;;;;;;10.30;8.70;;;;;;;20.02;57.21;100353.36;108215;1253;71306;-69
2023/07/16 02:07:41;;;;;;;11.40;9.00;;;;;;;19.84;57.55;100351.45;108063;1253;60814;-66
2023/07/16 02:10:09;;;;;;;17.10;9.30;;;;;;;19.81;57.87;100353.10;108298;1252;60156;-65
2023/07/16 02:12:35;;;;;;;12.50;9.10;;;;;;;20.02;57.67;100353.38;108128;1252;74165;-67
2023/07/16 02:15:04;;;;;;;15.00;9.40;;;;;;;20.06;57.37;100351.30;108418;1252;68886;-68
2023/07/16 02:17:35;;;;;;;15.80;8.50;;;;;;;20.06;57.21;100345.42;108134;1253;71532;-62
2023/07/16 02:20:06;;;;;;;18.80;9.00;;;;;;;19.96;57.45;100345.75;108172;1252;61968;-69
2023/07/16 02:22:34;;;;;;;13.70;8.80;;;;;;;19.94;57.52;100341.63;108220;1253;59039;-66
2023/07/16 02:25:01;;;;;;;14.50;8.10;;;;;;;19.94;57.71;100343.56;108538;1253;73399;-68
2023/07/16 02:27:28;;;;;;;12.90;9.40;;;;;;;20.00;57.53;100350.11;108209;1253;70763;-66
2023/07/16 02:29:55;;;;;;;16.30;9.10;;;;;;;20.11;57.26;100351.46;108648;1252;72323;-68
2023/07/16 02:32:22;;;;;;;14.80;8.30;;;;;;;20.25;56.90;100347.05;108059;1253;61841;-68
2023/07/16 02:34:48;;;;;;;18.40;9.90;;;;;;;20.29;56.79;100346.70;108162;1253;60398;-66
2023/07/16 02:37:15;;;;;;;14.30;8.50;;;;;;;20.39;56.49;100343.55;108149;1255;73870;-68
2023/07/16 02:39:45;;;;;;;15.00;9.10;;;;;;;19.99;57.51;100345.91;108171;1253;70335;-67
2023/07/16 02:42:11;;;;;;;19.30;9.10;;;;;;;20.13;57.54;100347.58;108083;1253;72325;-68
2023/07/16 02:44:41;;;;;;;10.30;7.50;;;;;;;20.16;57.59;100346.44;107996;1252;62051;-68
2023/07/16 02:47:09;;;;;;;;;;;;;;;20.15;57.75;100348.51;108186;1253;60788;-68
2023/07/16 02:49:35;;;;;;;11.40;8.60;;;;;;;20.31;57.52;100348.34;108160;1251;60532;-68
2023/07/16 02:52:05;;;;;;;18.50;9.40;;;;;;;20.30;57.74;100351.31;108224;1251;69024;-68
2023/07/16 02:54:35;;;;;;;13.60;9.10;;;;;;;20.23;58.16;100356.48;108140;1251;72492;-68
2023/07/16 02:57:03;;;;;;;16.50;8.20;;;;;;;20.31;58.16;100357.11;108354;1251;61959;-69
2023/07/16 02:59:30;;;;;;;21.60;9.30;;;;;;;20.02;59.27;100354.60;108169;1251;60313;-65
2023/07/16 03:01:57;;;;;;;14.30;8.40;;;;;;;19.89;59.92;100360.31;108273;1251;73785;-68
2023/07/16 03:04:23;;;;;;;13.80;7.80;;;;;;;19.95;59.96;100360.83;107999;1251;70237;-66
2023/07/16 03:06:50;;;;;;;11.40;8.60;;;;;;;19.97;60.02;100365.31;108116;1251;73060;-67
2023/07/16 03:09:17;;;;;;;14.00;8.70;;;;;;;20.05;59.93;100366.29;108177;1251;61719;-68
2023/07/16 03:11:44;;;;;;;14.90;9.00;;;;;;;20.10;59.98;100365.98;108494;1251;60285;-67
2023/07/16 03:14:10;;;;;;;14.70;8.20;;;;;;;20.08;60.21;100367.16;108231;1255;73727;-66
2023/07/16 03:16:38;;;;;;;14.50;7.60;;;;;;;20.28;59.99;100363.02;108084;1253;70111;-66
2023/07/16 03:19:06;;;;;;;13.60;8.40;;;;;;;20.42;59.85;100364.30;108182;1253;71866;-66
2023/07/16 03:21:33;;;;;;;15.40;7.80;;;;;;;20.59;59.30;100362.84;108011;1252;61984;-69
2023/07/16 03:24:00;;;;;;;17.60;7.80;;;;;;;20.74;59.11;100365.84;108096;1253;60179;-67
2023/07/16 03:26:27;;;;;;;13.70;7.70;;;;;;;21.13;58.59;100364.66;108120;1251;74370;-68
2023/07/16 03:28:55;;;;;;;19.50;7.80;;;;;;;21.45;57.62;100364.73;108417;1256;71055;-68
2023/07/16 03:31:23;;;;;;;14.60;7.20;;;;;;;21.65;57.33;100367.03;108153;1257;73180;-67
2023/07/16 03:33:50;;;;;;;14.30;7.70;;;;;;;21.85;56.91;100368.14;108286;1251;61845;-69
2023/07/16 03:36:18;;;;;;;10.20;7.20;;;;;;;22.08;56.48;100371.11;108162;1251;60365;-68
2023/07/16 03:38:45;;;;;;;10.20;6.90;;;;;;;22.24;56.22;100371.97;108133;1251;73523;-67
2023/07/16 03:41:13;;;;;;;11.70;6.90;;;;;;;22.55;55.55;100371.36;108258;1251;69032;-67
2023/07/16 03:43:40;;;;;;;10.80;6.80;;;;;;;22.85;54.92;100366.34;107963;1251;72763;-67
2023/07/16 03:46:18;;;;;;;15.00;6.90;;;;;;;23.23;54.07;100367.62;108620;1251;62035;-70
2023/07/16 03:48:45;;;;;;;8.40;6.40;;;;;;;23.41;53.46;100370.15;108303;1251;60320;-68
2023/07/16 03:51:12;;;;;;;10.20;6.40;;;;;;;23.51;53.50;100371.81;108922;1251;73894;-69
2023/07/16 03:53:39;;;;;;;14.80;6.10;;;;;;;23.85;52.93;100370.85;108542;1251;70192;-68
2023/07/16 03:56:05;;;;;;;14.00;6.00;;;;;;;24.08;52.52;100369.34;108245;1251;72840;-67
2023/07/16 03:58:32;;;;;;;8.00;5.70;;;;;;;24.37;51.99;100367.83;108049;1251;61835;-67
2023/07/16 04:01:00;;;;;;;10.00;5.80;;;;;;;24.68;51.59;100371.38;108239;1251;60943;-70
2023/07/16 04:03:27;;;;;;;10.60;6.00;;;;;;;25.10;50.78;100370.97;108059;1251;74085;-70
2023/07/16 04:06:04;;;;;;;10.00;5.60;;;;;;;25.37;50.20;100369.11;108243;1251;70004;-68
2023/07/16 04:08:33;;;;;;;9.60;5.40;;;;;;;25.67;49.63;100371.27;108062;1251;71607;-68
2023/07/16 04:11:01;;;;;;;10.20;5.50;;;;;;;25.96;48.99;100367.17;108309;1251;60659;-69
2023/07/16 04:13:28;;;;;;;8.30;5.10;;;;;;;26.17;48.67;100370.70;108317;1251;60290;-68
2023/07/16 04:15:57;;;;;;;10.60;4.90;;;;;;;26.59;47.98;100366.20;108243;1251;74538;-68
2023/07/16 04:18:26;;;;;;;10.50;4.80;;;;;;;27.13;46.83;100363.08;108307;1251;70111;-68
2023/07/16 04:20:53;;;;;;;7.10;4.70;;;;;;;27.47;46.17;100360.07;108304;1251;73059;-68
2023/07/16 04:23:20;;;;;;;12.10;4.60;;;;;;;27.81;45.41;100364.64;108533;1251;61792;-69
2023/07/16 04:25:46;;;;;;;6.70;4.40;;;;;;;28.22;44.57;100362.41;109376;1251;60571;-69
2023/07/16 04:28:14;;;;;;;5.80;4.30;;;;;;;28.58;43.98;100358.94;108553;1251;73171;-70
2023/07/16 04:30:40;;;;;;;10.50;4.00;;;;;;;28.94;43.24;100359.46;108117;1251;69478;-69
2023/07/16 04:33:07;;;;;;;7.10;3.80;;;;;;;29.11;42.33;100365.05;108569;1251;71883;-69
2023/07/16 04:35:36;;;;;;;5.40;3.60;;;;;;;29.47;41.38;100370.75;108196;1251;60383;-69
2023/07/16 04:38:03;;;;;;;6.70;3.80;;;;;;;29.88;40.52;100372.02;108147;1251;60740;-68
2023/07/16 04:40:29;;;;;;;7.50;3.50;;;;;;;30.29;39.68;100374.61;108210;1251;74158;-69
2023/07/16 04:42:56;;;;;;;5.00;3.40;;;;;;;30.64;38.80;100379.30;108233;1251;70045;-69
2023/07/16 04:45:23;;;;;;;6.00;3.40;;;;;;;30.89;38.09;100374.84;108289;1251;72710;-70
2023/07/16 04:47:50;;;;;;;5.50;3.50;;;;;;;31.23;36.88;100376.88;108332;1251;60355;-70
2023/07/16 04:50:17;;;;;;;4.10;2.70;;;;;;;31.49;36.04;100377.58;108132;1252;60414;-70
2023/07/16 04:52:43;;;;;;;4.60;2.90;;;;;;;31.69;35.07;100377.20;108113;1252;73840;-68
2023/07/16 04:55:12;;;;;;;4.40;2.70;;;;;;;31.98;34.11;100378.69;108120;1252;70208;-70
2023/07/16 04:57:39;;;;;;;3.90;2.60;;;;;;;32.24;33.09;100382.90;108126;1252;72856;-69
2023/07/16 05:00:07;;;;;;;4.20;3.00;;;;;;;32.55;32.75;100381.95;108076;1252;60304;-68
2023/07/16 05:02:34;;;;;;;4.80;2.60;;;;;;;32.83;31.99;100380.48;108135;1252;60447;-69
2023/07/16 05:05:01;;;;;;;4.70;2.50;;;;;;;32.75;31.00;100380.40;108233;1255;73782;-69
2023/07/16 05:07:28;;;;;;;9.30;2.80;;;;;;;32.58;31.61;100382.86;108054;1252;70874;-71
2023/07/16 05:09:55;;;;;;;4.50;2.70;;;;;;;32.86;31.15;100386.50;108045;1253;73170;-70
2023/07/16 05:12:22;;;;;;;4.60;2.20;;;;;;;33.20;30.68;100381.93;108078;1252;61418;-72
2023/07/16 05:14:48;;;;;;;3.90;2.20;;;;;;;33.57;29.91;100385.33;108077;1253;60434;-70
2023/07/16 05:17:15;;;;;;;3.60;1.90;;;;;;;33.85;29.51;100384.94;108205;1252;73671;-69
2023/07/16 05:19:42;;;;;;;3.30;2.20;;;;;;;33.93;28.72;100390.00;108164;1255;61561;-70
2023/07/16 05:22:09;;;;;;;4.10;2.00;;;;;;;34.23;28.31;100396.35;108276;1253;64008;-69
2023/07/16 05:24:36;;;;;;;5.10;2.60;;;;;;;34.44;28.13;100399.43;108174;1253;60187;-70
2023/07/16 05:27:04;;;;;;;4.40;2.10;;;;;;;34.56;26.87;100398.66;108201;1252;60273;-70
2023/07/16 05:29:33;;;;;;;5.60;2.00;;;;;;;34.66;27.19;100393.10;108194;1253;64999;-69
2023/07/16 05:31:59;;;;;;;6.50;2.00;;;;;;;34.80;27.52;100391.62;108126;1253;61718;-70
2023/07/16 05:34:26;;;;;;;7.10;2.10;;;;;;;35.12;26.73;100393.23;108116;1255;64063;-70
2023/07/16 05:36:54;;;;;;;3.20;2.00;;;;;;;35.37;25.96;100394.18;108153;1253;60340;-69
2023/07/16 05:39:24;;;;;;;4.30;2.10;;;;;;;35.55;25.63;100392.39;108195;1253;60444;-70
2023/07/16 05:41:50;;;;;;;2.70;2.30;;;;;;;35.65;25.17;100397.48;108128;1255;64913;-69
2023/07/16 05:44:17;;;;;;;3.30;2.00;;;;;;;35.71;25.17;100400.96;108083;1253;59496;-69
2023/07/16 05:46:46;;;;;;;2.70;1.80;;;;;;;35.71;24.82;100402.05;108215;1253;63697;-70
2023/07/16 05:49:13;;;;;;;3.30;2.10;;;;;;;35.74;24.69;100403.11;108089;1252;59232;-69
2023/07/16 05:51:40;;;;;;;3.50;2.10;;;;;;;35.80;25.05;100404.39;108144;1251;60463;-69
2023/07/16 05:54:07;;;;;;;3.70;1.80;;;;;;;35.98;25.15;100404.49;108350;1251;65176;-71
2023/07/16 05:56:36;;;;;;;3.40;1.80;;;;;;;36.26;24.75;100405.65;108298;1251;61839;-70
2023/07/16 05:59:02;;;;;;;4.60;1.70;;;;;;;36.64;23.60;100405.95;108223;1251;64054;-69
2023/07/16 06:01:29;;;;;;;4.30;1.70;;;;;;;37.22;22.43;100403.21;108198;1251;60326;-70
2023/07/16 06:03:56;;;;;;;4.10;1.70;;;;;;;37.36;21.96;100403.91;108192;1251;60345;-71
2023/07/16 06:06:27;;;;;;;4.50;1.60;;;;;;;37.20;22.05;100406.30;108218;1251;65422;-70
2023/07/16 06:08:55;;;;;;;5.00;1.70;;;;;;;37.29;22.28;100405.17;108345;1251;61712;-71
2023/07/16 06:11:22;;;;;;;3.00;1.80;;;;;;;37.34;21.74;100402.86;108232;1251;64053;-70
2023/07/16 06:13:48;;;;;;;3.80;1.70;;;;;;;37.26;21.90;100403.33;108188;1251;60329;-70
2023/07/16 06:16:14;;;;;;;2.50;1.60;;;;;;;37.31;21.86;100398.77;108158;1251;60256;-69
2023/07/16 06:18:42;;;;;;;3.90;1.70;;;;;;;37.46;21.82;100394.89;108170;1251;65286;-70
2023/07/16 06:21:08;;;;;;;39.70;9.60;;;;;;;37.98;21.52;100395.09;108289;1251;60263;-70
2023/07/16 06:23:35;;;;;;;6.00;2.50;;;;;;;38.36;21.51;100396.45;108189;1252;63980;-70
2023/07/16 06:26:02;;;;;;;12.30;4.00;;;;;;;38.15;21.32;100398.17;108139;1251;60261;-71
2023/07/16 06:28:30;;;;;;;5.60;2.00;;;;;;;38.12;21.18;100396.79;108209;1251;59477;-71
2023/07/16 06:30:57;;;;;;;5.80;1.90;;;;;;;38.26;21.04;100399.52;108165;1251;65132;-70
2023/07/16 06:33:26;;;;;;;4.00;1.80;;;;;;;38.59;20.72;100400.21;108240;1251;60778;-70
2023/07/16 06:35:53;;;;;;;4.90;1.30;;;;;;;38.75;20.27;100398.98;108290;1251;63870;-71
2023/07/16 06:38:20;;;;;;;5.40;1.70;;;;;;;38.76;20.75;100404.05;108214;1251;60120;-70
2023/07/16 06:40:48;;;;;;;2.80;1.70;;;;;;;38.88;20.04;100405.38;108217;1251;60246;-70
2023/07/16 06:43:15;;;;;;;3.60;1.50;;;;;;;38.94;19.73;100404.41;108442;1251;65260;-69
2023/07/16 06:45:42;;;;;;;4.30;1.70;;;;;;;38.99;19.66;100404.33;108302;1251;61767;-70
2023/07/16 06:48:09;;;;;;;4.40;1.80;;;;;;;38.88;19.63;100409.33;108198;1253;64053;-70
2023/07/16 06:50:36;;;;;;;4.50;1.90;;;;;;;38.94;20.11;100407.66;108142;1253;60266;-71
2023/07/16 06:53:04;;;;;;;4.50;1.80;;;;;;;38.97;20.11;100404.41;108160;1252;58800;-69
2023/07/16 06:55:31;;;;;;;3.10;1.60;;;;;;;39.19;19.69;100407.34;108184;1252;65405;-71
2023/07/16 06:57:59;;;;;;;2.60;1.60;;;;;;;39.43;19.70;100409.43;108161;1253;60657;-70
2023/07/16 07:00:26;;;;;;;3.50;1.50;;;;;;;39.66;18.57;100408.02;108151;1253;62549;-71
2023/07/16 07:02:52;;;;;;;4.70;2.00;;;;;;;39.91;18.14;100404.86;108134;1253;60480;-72
2023/07/16 07:05:19;;;;;;;6.10;1.70;;;;;;;40.06;18.55;100406.06;108032;1252;60386;-70
2023/07/16 07:07:46;;;;;;;2.50;1.60;;;;;;;39.92;18.54;100404.84;108120;1252;63851;-70
2023/07/16 07:10:13;;;;;;;3.50;1.60;;;;;;;39.86;18.29;100405.77;108096;1253;61620;-69
2023/07/16 07:12:39;;;;;;;2.50;1.60;;;;;;;39.86;18.37;100402.73;108140;1253;63870;-70
2023/07/16 07:15:07;;;;;;;5.80;1.60;;;;;;;40.05;18.53;100400.96;108125;1253;60326;-71
2023/07/16 07:17:34;;;;;;;7.00;1.80;;;;;;;40.23;18.10;100398.08;108168;1252;60469;-71
2023/07/16 07:20:01;;;;;;;3.70;1.70;;;;;;;40.28;18.21;100401.05;108167;1253;65091;-71
2023/07/16 07:22:28;;;;;;;9.80;2.10;;;;;;;40.44;18.48;100397.43;108192;1253;62228;-70
2023/07/16 07:24:55;;;;;;;2.20;1.70;;;;;;;40.75;18.53;100402.98;108146;1252;64166;-70
2023/07/16 07:27:22;;;;;;;2.10;1.30;;;;;;;40.95;18.39;100402.36;108115;1252;59710;-71
2023/07/16 07:29:51;;;;;;;2.10;1.60;;;;;;;41.08;17.81;100396.72;108080;1252;60408;-71
2023/07/16 07:32:21;;;;;;;6.20;1.70;;;;;;;41.07;17.48;100397.48;108382;1253;65460;-71
2023/07/16 07:34:48;;;;;;;2.50;1.60;;;;;;;40.95;18.11;100401.11;108153;1253;61517;-70
2023/07/16 07:37:15;;;;;;;3.00;1.50;;;;;;;40.76;17.96;100399.18;108188;1253;63975;-71
2023/07/16 07:39:42;;;;;;;6.10;1.50;;;;;;;40.72;17.32;100400.04;108113;1255;60287;-71
2023/07/16 07:42:09;;;;;;;3.60;1.40;;;;;;;40.72;17.15;100396.55;108205;1253;60448;-70
2023/07/16 07:44:36;;;;;;;5.20;1.70;;;;;;;40.83;17.35;100395.05;108025;1253;65160;-72
2023/07/16 07:47:03;;;;;;;3.40;1.50;;;;;;;40.95;17.26;100396.73;108325;1252;60397;-71
2023/07/16 07:49:30;;;;;;;4.30;1.60;;;;;;;40.80;17.31;100393.01;108347;1253;64081;-72
2023/07/16 07:51:56;;;;;;;3.60;1.40;;;;;;;40.63;17.47;100397.45;108076;1253;60976;-70
2023/07/16 07:54:23;;;;;;;7.10;1.90;;;;;;;40.47;17.52;100398.87;108242;1251;60450;-70
2023/07/16 07:56:50;;;;;;;2.30;1.50;;;;;;;40.41;17.52;100397.77;108267;1251;65055;-70
2023/07/16 07:59:16;;;;;;;4.50;1.60;;;;;;;40.49;17.72;100400.52;108240;1251;60418;-70
2023/07/16 08:01:45;;;;;;;2.50;1.50;;;;;;;40.72;17.77;100399.73;108283;1251;63897;-70
2023/07/16 08:04:12;;;;;;;2.70;1.30;;;;;;;40.80;16.89;100402.77;108225;1255;59189;-71
2023/07/16 08:06:41;;;;;;;3.20;1.40;;;;;;;40.87;17.44;100406.98;108304;1251;60474;-72
2023/07/16 08:12:11;;;;;;;3.20;1.60;;;;;;;39.95;17.88;100397.96;104639;1292;602598;-72
2023/07/16 08:14:42;;;;;;;2.20;1.60;;;;;;;40.94;17.24;100398.98;107241;1268;59149;-72
2023/07/16 08:17:09;;;;;;;2.90;1.70;;;;;;;41.13;16.88;100386.54;107301;1267;59278;-73
2023/07/16 08:19:38;;;;;;;5.30;1.80;;;;;;;41.20;17.00;100388.04;107232;1267;63615;-71
2023/07/16 08:22:04;;;;;;;6.60;1.70;;;;;;;41.44;16.68;100384.46;107250;1266;61507;-70
2023/07/16 08:24:31;;;;;;;2.70;1.60;;;;;;;41.76;16.72;100379.42;107010;1269;283959;-70
2023/07/16 08:26:58;;;;;;;2.90;1.80;;;;;;;41.88;17.06;100381.97;107345;1264;59206;-70
2023/07/16 08:29:25;;;;;;;6.70;1.70;;;;;;;42.14;16.71;100382.67;107357;1263;59167;-72
2023/07/16 08:31:51;;;;;;;2.50;1.50;;;;;;;42.18;16.10;100377.68;107362;1264;63377;-71
2023/07/16 08:34:20;;;;;;;2.90;1.60;;;;;;;42.32;16.41;100380.05;107423;1265;61520;-72
2023/07/16 08:36:48;;;;;;;2.60;1.60;;;;;;;42.48;16.68;100375.79;107479;1260;64163;-71
2023/07/16 08:39:19;;;;;;;3.70;1.90;;;;;;;42.14;16.44;100374.14;107575;1261;59634;-70
2023/07/16 08:41:48;;;;;;;8.90;2.10;;;;;;;41.76;17.16;100369.30;107602;1260;59144;-71
2023/07/16 08:44:14;;;;;;;4.60;1.70;;;;;;;41.83;16.96;100371.78;107676;1259;63209;-71
2023/07/16 08:46:41;;;;;;;2.90;1.70;;;;;;;42.12;17.44;100372.84;107560;1260;61638;-71
2023/07/16 08:49:08;;;;;;;2.40;1.80;;;;;;;42.20;16.57;100368.63;107561;1261;63946;-72
2023/07/16 08:51:35;;;;;;;2.40;1.70;;;;;;;42.15;16.77;100366.08;107535;1259;59690;-71
2023/07/16 08:54:02;;;;;;;4.20;1.90;;;;;;;42.02;16.66;100366.55;107646;1259;59349;-70
2023/07/16 08:56:29;;;;;;;3.30;1.80;;;;;;;41.76;16.95;100367.05;108059;1254;64190;-70
2023/07/16 08:58:56;;;;;;;3.50;2.10;;;;;;;41.84;17.19;100369.09;107843;1256;61612;-70
2023/07/16 09:01:22;;;;;;;2.90;1.80;;;;;;;41.94;17.23;100370.66;108043;1256;64422;-70
2023/07/16 09:03:50;;;;;;;2.60;1.70;;;;;;;41.48;16.95;100367.33;107766;1257;59408;-69
2023/07/16 09:06:17;;;;;;;3.00;1.70;;;;;;;41.08;17.54;100370.67;108818;1256;59252;-72
2023/07/16 09:08:46;;;;;;;3.60;2.00;;;;;;;40.96;17.64;100367.83;107848;1254;64308;-71
2023/07/16 09:11:16;;;;;;;3.20;1.80;;;;;;;40.96;17.27;100366.48;107944;1258;61636;-71
2023/07/16 09:13:45;;;;;;;2.10;1.80;;;;;;;40.67;17.30;100367.77;107974;1258;64000;-72
2023/07/16 09:16:12;;;;;;;6.30;2.00;;;;;;;40.69;17.31;100366.98;107987;1255;59703;-70
2023/07/16 09:18:39;;;;;;;3.60;2.00;;;;;;;40.68;17.57;100359.06;107973;1254;59660;-71
2023/07/16 09:21:06;;;;;;;3.20;1.60;;;;;;;40.61;17.73;100358.23;108023;1258;64403;-70
2023/07/16 09:23:33;;;;;;;4.40;2.30;;;;;;;40.43;17.60;100356.13;108058;1254;61981;-69
2023/07/16 09:26:01;;;;;;;6.20;1.90;;;;;;;40.44;17.64;100355.27;108046;1254;64453;-70
2023/07/16 09:28:29;;;;;;;2.50;1.70;;;;;;;40.81;17.26;100349.08;107954;1254;59401;-69
2023/07/16 09:30:55;;;;;;;6.20;1.50;;;;;;;41.34;17.32;100347.17;107738;1260;59850;-71
2023/07/16 09:33:25;;;;;;;2.40;1.90;;;;;;;41.81;17.04;100349.85;107997;1254;63114;-70
2023/07/16 09:35:52;;;;;;;2.30;1.70;;;;;;;41.98;16.60;100350.23;107899;1254;61598;-72
2023/07/16 09:38:19;;;;;;;4.90;1.70;;;;;;;41.99;16.53;100345.81;108003;1254;60308;-70
2023/07/16 09:40:47;;;;;;;5.90;1.90;;;;;;;41.64;16.26;100337.09;107957;1257;61061;-70
2023/07/16 09:43:14;;;;;;;2.20;1.60;;;;;;;41.36;16.38;100343.17;108004;1254;59116;-70
2023/07/16 09:45:41;;;;;;;3.00;1.90;;;;;;;41.45;16.92;100346.06;107893;1254;64492;-70
2023/07/16 09:48:09;;;;;;;4.50;1.70;;;;;;;41.80;16.88;100348.08;107935;1257;61942;-70
2023/07/16 09:50:36;;;;;;;2.90;1.50;;;;;;;42.29;16.31;100348.91;108292;1258;63956;-70
2023/07/16 09:53:07;;;;;;;5.20;1.70;;;;;;;42.18;15.46;100343.98;107652;1257;59517;-70
2023/07/16 09:55:35;;;;;;;1.90;1.20;;;;;;;42.17;14.99;100339.70;107898;1256;59593;-71
2023/07/16 09:58:06;;;;;;;2.40;1.50;;;;;;;42.12;15.33;100334.13;107925;1258;64324;-71
2023/07/16 10:00:32;;;;;;;;;;;;;;;42.31;15.25;100334.52;108073;1256;61395;-72
2023/07/16 10:02:59;;;;;;;2.00;1.20;;;;;;;42.50;15.28;100341.14;107901;1257;64310;-70
2023/07/16 10:05:27;;;;;;;2.20;1.40;;;;;;;42.60;15.11;100338.41;107893;1257;59500;-70
2023/07/16 10:07:59;;;;;;;3.00;1.50;;;;;;;42.81;15.10;100341.52;107957;1257;59660;-71
2023/07/16 10:10:39;;;;;;;1.80;1.60;;;;;;;43.04;15.29;100338.42;107979;1257;64450;-70
2023/07/16 10:13:07;;;;;;;3.60;1.70;;;;;;;43.37;14.84;100337.41;107946;1259;61701;-71
2023/07/16 10:15:33;;;;;;;4.90;1.70;;;;;;;43.59;14.81;100334.77;107950;1257;64021;-71
2023/07/16 10:18:00;;;;;;;4.30;1.90;;;;;;;43.32;14.83;100337.48;107964;1256;59979;-70
2023/07/16 10:20:30;;;;;;;3.40;1.70;;;;;;;43.23;14.47;100338.38;107980;1259;59612;-69
2023/07/16 10:22:57;;;;;;;3.30;1.60;;;;;;;43.06;14.69;100340.99;107953;1255;64491;-69
2023/07/16 10:25:25;;;;;;;5.50;1.60;;;;;;;42.93;14.33;100334.54;107881;1257;61624;-70
2023/07/16 10:27:53;;;;;;;3.60;1.90;;;;;;;42.92;14.65;100331.65;107705;1261;63943;-70
2023/07/16 10:30:20;;;;;;;5.90;1.70;;;;;;;42.79;15.00;100333.92;107905;1257;59503;-71
2023/07/16 10:32:47;;;;;;;2.70;1.70;;;;;;;42.74;14.75;100333.16;107868;1257;59548;-71
2023/07/16 10:35:14;;;;;;;3.50;2.00;;;;;;;42.61;14.92;100328.23;107893;1259;63083;-71
2023/07/16 10:37:43;;;;;;;3.40;2.00;;;;;;;42.49;15.01;100328.39;107890;1257;61410;-71
2023/07/16 10:40:10;;;;;;;4.40;1.60;;;;;;;42.35;14.83;100320.85;107862;1257;62676;-71
2023/07/16 10:42:37;;;;;;;3.90;1.80;;;;;;;42.21;14.93;100314.67;107857;1257;58981;-71
2023/07/16 10:45:04;;;;;;;3.90;1.50;;;;;;;42.26;14.87;100315.02;107726;1257;60088;-71
2023/07/16 10:47:34;;;;;;;2.60;1.80;;;;;;;42.61;14.63;100315.92;108286;1255;64139;-71
2023/07/16 10:50:09;;;;;;;4.20;1.80;;;;;;;42.56;15.04;100313.34;107824;1260;62369;-71
2023/07/16 10:52:37;;;;;;;3.50;1.80;;;;;;;42.45;15.47;100312.65;107797;1257;63944;-72
2023/07/16 10:55:04;;;;;;;3.20;1.70;;;;;;;42.55;15.31;100311.73;107891;1257;59513;-71
2023/07/16 10:57:31;;;;;;;2.60;1.90;;;;;;;42.75;15.01;100309.52;107880;1257;59637;-72
2023/07/16 10:59:58;;;;;;;3.60;2.10;;;;;;;42.88;14.98;100304.97;107877;1257;65405;-72
2023/07/16 11:02:25;;;;;;;2.70;2.00;;;;;;;42.88;15.19;100302.75;107924;1257;62642;-72
2023/07/16 11:04:57;;;;;;;3.20;1.90;;;;;;;42.69;15.70;100309.08;107867;1256;64039;-71
2023/07/16 11:07:23;;;;;;;3.40;2.10;;;;;;;42.93;14.96;100302.13;108515;1257;58130;-70
2023/07/16 11:09:52;;;;;;;3.90;1.90;;;;;;;42.50;14.88;100303.94;107743;1255;59526;-72
2023/07/16 11:12:20;;;;;;;9.50;2.30;;;;;;;42.44;14.87;100308.77;107802;1257;64123;-70
2023/07/16 11:14:50;;;;;;;3.20;2.00;;;;;;;42.39;15.20;100308.48;107872;1257;60109;-70
2023/07/16 11:17:17;;;;;;;3.60;2.40;;;;;;;42.37;15.69;100306.26;107974;1257;64010;-70
2023/07/16 11:19:47;;;;;;;3.10;1.80;;;;;;;42.44;15.53;100310.44;107827;1258;59022;-71